Kokomo, MS (39643)

11:22 AM CDT on July 28, 2016 (GMT -0500)
Rayburn Correctional Center | | Change Station

Elev 118 ft 30.93 °N, 89.81 °W | Updated 25 seconds ago

Scattered Clouds
Scattered Clouds
86.9 °F
Feels Like 96 °F
N
6.0
Wind Variable Wind from SSW
Gusts 7.4 mph

Today
High -- | Low -- °F
--% Chance of Precip.
Yesterday
High -- | Low -- °F
Precip. -- in
Pressure 30.08 in
Visibility 10.0 miles
Clouds Scattered Clouds 2900 ft
Scattered Clouds 3500 ft
Heat Index 96 °F
Dew Point 75 °F
Humidity 67%
Rainfall 0.00 in
Snow Depth Not available.
6:14 AM 7:57 PM
Waning Crescent, 31% visible
METAR KBXA 281615Z AUTO 21006KT 10SM SCT029 SCT035 32/24 A3008 RMK AO2 T03230235 PWINO
Pressure 30.08 in
Visibility 10.0 miles
Clouds Scattered Clouds 2900 ft
Scattered Clouds 3500 ft
Heat Index 96 °F
Dew Point 75 °F
Humidity 67%
Rainfall 0.00 in
Snow Depth Not available.
6:14 AM 7:57 PM
Waning Crescent, 31% visible
METAR KBXA 281615Z AUTO 21006KT 10SM SCT029 SCT035 32/24 A3008 RMK AO2 T03230235 PWINO

10-Day Weather Forecast

Almanac

Astronomy

Jul. 28, 2016 Rise Set
Actual Time
Civil Twilight
Nautical Twilight
Astronomical Twilight
Moon
Length of Visible Light
Length of Day
Tomorrow will be .
, % of the Moon is Illuminated

Today's Extremes

State Highs State Lows

Community

WunderPhotos

Upload Photos

1,928,146 photos uploaded!

WunderBlog® & News

Nearby

Air Quality

  Air Quality AQ Index Pollutant
Not available.

Snow Depth

Station Depth Elevation

Earthquake Activity

City Distance Mag. Time & Date
Minimum magnitude displayed is 2.5.

Coastal Water Temperatures

Place Temperature

Stations

Nearby Weather Stations

Station Location Temp. Windchill Dew Point Humidity Wind Precip. Elev Updated Type
                   

Watches & Warnings

There are currently no watches in effect.